Terminal Aerodrome Forecast
Issued by NWS Boston, MA

Home | Current Version | Previous Version | Text Only | Print | Product List | Glossary On
Versions: 1 2 3 4 5 6 7 8 9 10 11 12 13 14 15 16 17 18 19 20 21 22 23 24 25 26 27 28 29 30
000
FTUS41 KBOX 271123
TAFORH
TAF
KORH 271123Z 2712/2812 26010KT P6SM SKC
     FM271800 24010KT P6SM BKN050
     FM272000 25009KT P6SM VCTS BKN050CB
     FM280000 26006KT P6SM BKN050
     FM280400 30007KT P6SM BKN130=

USA.gov is the U.S. government's official web portal to all federal, state and local government web resources and services.